createdAt,value
2017-10-17T00:01:40.467Z,11.40
2017-10-17T00:04:06.798Z,11.50
2017-10-17T00:06:33.143Z,11.40
2017-10-17T00:08:59.470Z,11.50
2017-10-17T00:11:25.808Z,11.50
2017-10-17T00:13:52.905Z,11.50
2017-10-17T00:16:19.275Z,11.40
2017-10-17T00:18:45.639Z,11.40
2017-10-17T00:21:11.979Z,11.40
2017-10-17T00:23:38.310Z,11.40
2017-10-17T00:26:04.654Z,11.50
2017-10-17T00:28:31.022Z,11.40
2017-10-17T00:30:57.382Z,11.40
2017-10-17T00:33:25.006Z,11.30
2017-10-17T00:35:58.178Z,11.30
2017-10-17T00:38:24.526Z,11.30
2017-10-17T00:40:50.866Z,11.30
2017-10-17T00:43:17.209Z,11.30
2017-10-17T00:45:44.532Z,11.40
2017-10-17T00:48:22.898Z,11.40
2017-10-17T00:50:49.378Z,11.40
2017-10-17T00:53:15.731Z,11.40
2017-10-17T00:55:42.086Z,11.40
2017-10-17T00:58:09.171Z,11.40
2017-10-17T01:00:35.512Z,11.40
2017-10-17T01:03:01.866Z,11.40
2017-10-17T01:05:28.235Z,11.40
2017-10-17T01:07:54.578Z,11.50
2017-10-17T01:10:20.942Z,11.50
2017-10-17T01:12:47.301Z,11.60
2017-10-17T01:15:13.642Z,11.60
2017-10-17T01:17:40.734Z,11.70
2017-10-17T01:20:09.042Z,11.70
2017-10-17T01:22:35.411Z,11.80
2017-10-17T01:25:01.742Z,11.80
2017-10-17T01:27:28.103Z,11.80
2017-10-17T01:29:55.492Z,11.70
2017-10-17T01:32:21.827Z,11.60
2017-10-17T01:34:51.946Z,11.70
2017-10-17T01:37:18.297Z,11.70
2017-10-17T01:39:55.297Z,11.60
2017-10-17T01:42:36.503Z,11.50
2017-10-17T01:45:04.618Z,11.60
2017-10-17T01:47:32.127Z,11.60
2017-10-17T01:49:59.429Z,11.50
2017-10-17T01:52:27.341Z,11.70
2017-10-17T01:54:54.500Z,11.60
2017-10-17T01:57:20.947Z,11.60
2017-10-17T01:59:52.095Z,11.60
2017-10-17T02:02:18.439Z,11.70
2017-10-17T02:04:44.807Z,11.70
2017-10-17T02:07:11.253Z,11.70
2017-10-17T02:09:41.362Z,11.80
2017-10-17T02:12:08.708Z,11.70
2017-10-17T02:14:35.062Z,11.70
2017-10-17T02:17:01.434Z,11.60
2017-10-17T02:19:27.862Z,11.60
2017-10-17T02:21:55.994Z,11.50
2017-10-17T02:24:23.378Z,11.50
2017-10-17T02:26:49.751Z,11.40
2017-10-17T02:29:23.556Z,11.40
2017-10-17T02:31:50.675Z,11.40
2017-10-17T02:34:43.808Z,11.40
2017-10-17T02:37:10.192Z,11.50
2017-10-17T02:39:37.282Z,11.50
2017-10-17T02:42:03.629Z,11.40
2017-10-17T02:44:30.002Z,11.60
2017-10-17T02:46:57.093Z,11.60
2017-10-17T02:49:25.429Z,11.60
2017-10-17T02:51:52.526Z,11.50
2017-10-17T02:54:19.749Z,11.50
2017-10-17T02:56:46.081Z,11.50
2017-10-17T02:59:14.382Z,11.50
2017-10-17T03:01:51.466Z,11.40
2017-10-17T03:04:18.710Z,11.40
2017-10-17T03:06:45.072Z,11.30
2017-10-17T03:09:11.406Z,11.20
2017-10-17T03:11:37.738Z,11.20
2017-10-17T03:14:19.966Z,11.10
2017-10-17T03:16:47.047Z,10.90
2017-10-17T03:19:13.391Z,10.80
2017-10-17T03:21:47.445Z,10.80
2017-10-17T03:24:21.351Z,10.80
2017-10-17T03:26:48.448Z,10.80
2017-10-17T03:29:14.782Z,10.80
2017-10-17T03:31:41.114Z,10.80
2017-10-17T03:34:13.394Z,10.80
2017-10-17T03:36:42.523Z,10.80
2017-10-17T03:39:09.608Z,10.70
2017-10-17T03:41:35.955Z,10.70
2017-10-17T03:44:12.982Z,10.70
2017-10-17T03:46:41.765Z,10.70
2017-10-17T03:49:14.704Z,10.70
2017-10-17T03:51:41.042Z,10.70
2017-10-17T03:54:10.311Z,10.60
2017-10-17T03:56:36.652Z,10.70
2017-10-17T03:59:03.826Z,10.70
2017-10-17T04:01:30.463Z,10.70
2017-10-17T04:04:09.677Z,10.70
2017-10-17T04:06:45.903Z,10.60
2017-10-17T04:09:12.238Z,10.50
2017-10-17T04:11:39.645Z,10.50
2017-10-17T04:17:14.243Z,10.40
2017-10-17T04:20:10.473Z,10.30
2017-10-17T04:22:40.658Z,10.30
2017-10-17T04:28:01.622Z,10.20
2017-10-17T04:30:35.699Z,10.30
2017-10-17T04:36:13.111Z,10.10
2017-10-17T04:38:40.228Z,10.10
2017-10-17T04:41:08.462Z,10.10
2017-10-17T04:44:09.670Z,10.10
2017-10-17T04:46:51.922Z,10.00
2017-10-17T04:52:27.445Z,10.00
2017-10-17T04:54:53.819Z,10.00
2017-10-17T04:57:23.011Z,10.00
2017-10-17T04:59:55.171Z,10.00
2017-10-17T05:02:30.241Z,10.00
2017-10-17T05:04:58.235Z,10.00
2017-10-17T05:07:26.263Z,9.90
2017-10-17T05:09:56.460Z,9.80
2017-10-17T05:12:24.660Z,9.80
2017-10-17T05:14:51.035Z,9.80
2017-10-17T05:17:22.151Z,9.70
2017-10-17T05:19:54.668Z,9.70
2017-10-17T05:22:28.574Z,9.60
2017-10-17T05:24:58.498Z,9.60
2017-10-17T05:27:41.499Z,9.50
2017-10-17T05:30:12.839Z,9.50
2017-10-17T05:32:40.203Z,9.50
2017-10-17T05:35:08.342Z,9.50
2017-10-17T05:37:34.711Z,9.40
2017-10-17T05:40:04.649Z,9.40
2017-10-17T05:42:35.763Z,9.40
2017-10-17T05:45:03.107Z,9.40
2017-10-17T05:47:49.524Z,9.30
2017-10-17T05:50:19.569Z,9.40
2017-10-17T05:52:47.634Z,9.30
2017-10-17T05:55:13.962Z,9.40
2017-10-17T05:57:40.286Z,9.40
2017-10-17T06:00:07.367Z,9.50
2017-10-17T06:02:33.683Z,9.40
2017-10-17T06:05:00.000Z,9.50
2017-10-17T06:07:26.319Z,9.60
2017-10-17T06:09:53.384Z,9.70
2017-10-17T06:12:19.714Z,9.60
2017-10-17T06:14:46.047Z,9.70
2017-10-17T06:17:12.373Z,9.70
2017-10-17T06:19:40.455Z,9.90
2017-10-17T06:22:06.763Z,9.90
2017-10-17T06:24:33.847Z,10.00
2017-10-17T06:27:00.163Z,10.00
2017-10-17T06:29:27.219Z,10.30
2017-10-17T06:31:53.526Z,10.30
2017-10-17T06:34:19.846Z,10.50
2017-10-17T06:36:46.919Z,10.80
2017-10-17T06:39:13.978Z,10.90
2017-10-17T06:41:40.317Z,10.90
2017-10-17T06:44:06.652Z,11.00
2017-10-17T06:46:33.006Z,11.20
2017-10-17T06:48:59.354Z,11.40
2017-10-17T06:51:26.437Z,11.70
2017-10-17T06:53:52.746Z,11.70
2017-10-17T06:56:19.811Z,11.90
2017-10-17T06:58:46.143Z,11.90
2017-10-17T07:01:12.489Z,12.10
2017-10-17T07:03:39.809Z,12.20
2017-10-17T07:06:06.877Z,12.50
2017-10-17T07:08:34.213Z,12.40
2017-10-17T07:11:01.546Z,12.50
2017-10-17T07:13:28.610Z,12.90
2017-10-17T07:15:55.702Z,13.10
2017-10-17T07:18:22.018Z,13.20
2017-10-17T07:20:48.322Z,13.30
2017-10-17T07:23:15.623Z,13.40
2017-10-17T07:25:41.948Z,13.60
2017-10-17T07:28:08.290Z,13.80
2017-10-17T07:30:34.654Z,13.90
2017-10-17T07:33:01.746Z,14.40
2017-10-17T07:35:28.116Z,14.30
2017-10-17T07:37:54.471Z,14.60
2017-10-17T07:40:21.547Z,14.90
2017-10-17T07:42:47.847Z,14.80
2017-10-17T07:45:14.198Z,15.00
2017-10-17T07:47:41.539Z,15.10
2017-10-17T07:50:07.890Z,15.20
2017-10-17T07:52:34.246Z,15.40
2017-10-17T07:55:00.579Z,15.60
2017-10-17T07:57:26.891Z,15.80
2017-10-17T07:59:53.219Z,16.00
2017-10-17T08:02:19.559Z,16.10
2017-10-17T08:04:45.948Z,16.30
2017-10-17T08:07:12.305Z,16.50
2017-10-17T08:09:38.644Z,16.70
2017-10-17T08:12:04.995Z,16.90
2017-10-17T08:14:31.310Z,17.00
2017-10-17T08:16:57.631Z,17.10
2017-10-17T08:19:23.939Z,17.40
2017-10-17T08:21:50.258Z,17.70
2017-10-17T08:24:17.317Z,17.80
2017-10-17T08:26:43.638Z,17.80
2017-10-17T08:29:10.715Z,18.20
2017-10-17T08:31:37.054Z,18.20
2017-10-17T08:34:03.374Z,18.40
2017-10-17T08:36:29.685Z,18.50
2017-10-17T08:38:56.002Z,18.70
2017-10-17T08:41:23.067Z,19.00
2017-10-17T08:43:49.387Z,19.00
2017-10-17T08:46:15.706Z,19.20
2017-10-17T08:48:42.054Z,19.40
2017-10-17T08:51:08.387Z,19.60
2017-10-17T08:53:34.723Z,19.80
2017-10-17T08:56:01.106Z,20.00
2017-10-17T08:58:27.411Z,20.00
2017-10-17T09:00:53.732Z,20.10
2017-10-17T09:03:20.038Z,20.30
2017-10-17T09:05:46.338Z,20.20
2017-10-17T09:08:13.394Z,20.50
2017-10-17T09:10:40.523Z,20.60
2017-10-17T09:13:06.827Z,20.60
2017-10-17T09:15:33.136Z,20.90
2017-10-17T09:17:59.471Z,20.90
2017-10-17T09:20:25.778Z,21.00
2017-10-17T09:22:52.095Z,21.10
2017-10-17T09:25:19.151Z,21.00
2017-10-17T09:27:45.479Z,21.00
2017-10-17T09:30:11.779Z,21.20
2017-10-17T09:32:38.090Z,21.30
2017-10-17T09:35:04.459Z,21.30
2017-10-17T09:37:32.575Z,21.30
2017-10-17T09:39:58.898Z,21.20
2017-10-17T09:42:26.259Z,21.30
2017-10-17T09:44:52.574Z,21.50
2017-10-17T09:47:18.900Z,21.90
2017-10-17T09:49:45.227Z,22.10
2017-10-17T09:52:11.527Z,22.10
2017-10-17T09:54:38.582Z,22.20
2017-10-17T09:57:05.626Z,22.30
2017-10-17T09:59:32.668Z,22.50
2017-10-17T10:01:59.723Z,22.40
2017-10-17T10:04:26.795Z,22.50
2017-10-17T10:06:53.145Z,22.50
2017-10-17T10:09:19.482Z,22.70
2017-10-17T10:11:45.802Z,22.90
2017-10-17T10:14:12.106Z,23.20
2017-10-17T10:16:39.426Z,23.30
2017-10-17T10:19:05.727Z,23.40
2017-10-17T10:21:32.051Z,23.40
2017-10-17T10:23:58.394Z,23.50
2017-10-17T10:26:24.746Z,23.70
2017-10-17T10:28:51.058Z,23.70
2017-10-17T10:31:17.366Z,23.50
2017-10-17T10:33:43.684Z,23.30
2017-10-17T10:36:10.013Z,23.50
2017-10-17T10:38:36.317Z,23.70
2017-10-17T10:41:03.402Z,23.90
2017-10-17T10:43:29.710Z,23.80
2017-10-17T10:45:56.015Z,24.00
2017-10-17T10:48:23.090Z,23.90
2017-10-17T10:50:49.418Z,23.90
2017-10-17T10:53:15.732Z,23.90
2017-10-17T10:55:42.778Z,23.90
2017-10-17T10:58:09.861Z,23.90
2017-10-17T11:00:36.163Z,23.90
2017-10-17T11:03:02.565Z,23.80
2017-10-17T11:05:29.635Z,24.10
2017-10-17T11:07:56.689Z,24.20
2017-10-17T11:10:23.007Z,24.20
2017-10-17T11:12:50.058Z,24.10
2017-10-17T11:15:17.098Z,24.20
2017-10-17T11:17:44.148Z,24.10
2017-10-17T11:20:11.194Z,24.00
2017-10-17T11:22:38.265Z,23.90
2017-10-17T11:25:04.580Z,23.80
2017-10-17T11:27:31.920Z,24.00
2017-10-17T11:29:59.010Z,24.30
2017-10-17T11:32:25.846Z,24.30
2017-10-17T11:34:52.182Z,24.30
2017-10-17T11:37:18.487Z,24.50
2017-10-17T11:39:44.814Z,24.40
2017-10-17T11:42:23.290Z,24.50
2017-10-17T11:44:49.630Z,24.60
2017-10-17T11:47:16.000Z,24.50
2017-10-17T11:49:42.398Z,24.50
2017-10-17T11:52:09.492Z,24.70
2017-10-17T11:54:35.822Z,24.60
2017-10-17T11:57:02.152Z,24.70
2017-10-17T11:59:28.489Z,24.70
2017-10-17T12:01:54.834Z,24.80
2017-10-17T12:04:21.145Z,24.80
2017-10-17T12:06:48.530Z,24.80
2017-10-17T12:09:14.869Z,24.70
2017-10-17T12:11:41.196Z,24.70
2017-10-17T12:14:07.538Z,24.50
2017-10-17T12:16:33.895Z,24.70
2017-10-17T12:19:00.210Z,24.90
2017-10-17T12:21:27.315Z,25.30
2017-10-17T12:23:53.650Z,25.20
2017-10-17T12:26:19.979Z,25.90
2017-10-17T12:28:46.345Z,26.70
2017-10-17T12:31:13.423Z,28.40
2017-10-17T12:33:39.756Z,28.30
2017-10-17T12:36:06.092Z,29.20
2017-10-17T12:38:32.419Z,29.60
2017-10-17T12:40:58.737Z,29.40
2017-10-17T12:43:25.054Z,29.50
2017-10-17T12:45:52.102Z,30.60
2017-10-17T12:48:19.170Z,30.70
2017-10-17T12:50:45.482Z,30.70
2017-10-17T12:53:13.538Z,31.70
2017-10-17T12:55:40.595Z,31.90
2017-10-17T12:58:07.680Z,31.80
2017-10-17T13:00:34.775Z,32.00
2017-10-17T13:03:01.106Z,31.90
2017-10-17T13:05:27.415Z,31.90
2017-10-17T13:07:53.746Z,32.10
2017-10-17T13:10:20.087Z,32.00
2017-10-17T13:12:46.394Z,31.70
2017-10-17T13:15:12.734Z,32.00
2017-10-17T13:17:39.069Z,32.00
2017-10-17T13:20:05.410Z,31.70
2017-10-17T13:22:31.742Z,32.10
2017-10-17T13:24:58.066Z,32.30
2017-10-17T13:27:24.395Z,32.40
2017-10-17T13:29:51.721Z,32.10
2017-10-17T13:32:18.047Z,32.60
2017-10-17T13:34:45.095Z,33.20
2017-10-17T13:37:11.399Z,33.10
2017-10-17T13:39:37.754Z,33.60
2017-10-17T13:42:04.075Z,33.70
2017-10-17T13:44:30.379Z,33.70
2017-10-17T13:46:56.741Z,33.60
2017-10-17T13:49:23.058Z,33.40
2017-10-17T13:51:49.379Z,33.00
2017-10-17T13:54:16.678Z,33.30
2017-10-17T13:56:42.994Z,33.30
2017-10-17T13:59:09.305Z,33.20
2017-10-17T14:01:35.643Z,33.20
2017-10-17T14:04:01.950Z,33.30
2017-10-17T14:06:29.291Z,34.00
2017-10-17T14:08:56.400Z,33.90
2017-10-17T14:11:22.754Z,33.80
2017-10-17T14:13:49.933Z,33.30
2017-10-17T14:16:16.293Z,33.30
2017-10-17T14:18:42.625Z,33.30
2017-10-17T14:21:08.978Z,33.50
2017-10-17T14:23:35.328Z,33.70
2017-10-17T14:26:02.382Z,33.20
2017-10-17T14:28:29.470Z,33.00
2017-10-17T14:30:55.832Z,32.90
2017-10-17T14:33:22.450Z,32.80
2017-10-17T14:35:48.768Z,32.70
2017-10-17T14:38:15.073Z,32.50
2017-10-17T14:40:41.392Z,32.00
2017-10-17T14:43:08.447Z,31.30
2017-10-17T14:45:34.820Z,31.20
2017-10-17T14:48:01.170Z,30.90
2017-10-17T14:50:27.498Z,30.20
2017-10-17T14:52:53.830Z,29.60
2017-10-17T14:55:20.158Z,28.90
2017-10-17T14:57:46.469Z,28.50
2017-10-17T15:00:12.790Z,28.30
2017-10-17T15:02:39.110Z,27.60
2017-10-17T15:05:05.380Z,27.20
2017-10-17T15:07:31.687Z,26.80
2017-10-17T15:09:58.006Z,26.50
2017-10-17T15:12:24.278Z,26.30
2017-10-17T15:14:50.550Z,26.10
2017-10-17T15:17:16.859Z,25.90
2017-10-17T15:19:43.874Z,26.10
2017-10-17T15:22:10.190Z,26.20
2017-10-17T15:24:36.505Z,26.40
2017-10-17T15:27:02.782Z,26.50
2017-10-17T15:29:29.826Z,26.70
2017-10-17T15:31:56.871Z,26.70
2017-10-17T15:34:23.887Z,26.70
2017-10-17T15:36:50.154Z,26.60
2017-10-17T15:39:17.222Z,26.00
2017-10-17T15:41:43.530Z,26.00
2017-10-17T15:44:10.536Z,25.30
2017-10-17T15:46:36.850Z,25.30
2017-10-17T15:49:03.135Z,25.20
2017-10-17T15:51:31.215Z,24.70
2017-10-17T15:53:58.233Z,24.40
2017-10-17T15:56:24.538Z,24.40
2017-10-17T15:58:50.850Z,23.90
2017-10-17T16:01:17.139Z,23.50
2017-10-17T16:03:44.144Z,22.10
2017-10-17T16:06:10.452Z,22.00
2017-10-17T16:08:36.722Z,21.40
2017-10-17T16:11:03.015Z,20.90
2017-10-17T16:13:29.302Z,20.50
2017-10-17T16:15:56.346Z,20.00
2017-10-17T16:18:23.359Z,19.60
2017-10-17T16:20:49.674Z,19.60
2017-10-17T16:23:15.953Z,19.20
2017-10-17T16:25:43.983Z,18.60
2017-10-17T16:28:10.374Z,18.50
2017-10-17T16:30:37.775Z,18.20
2017-10-17T16:33:04.143Z,17.90
2017-10-17T16:35:31.227Z,17.60
2017-10-17T16:37:57.604Z,17.50
2017-10-17T16:40:23.996Z,17.40
2017-10-17T16:42:50.323Z,17.10
2017-10-17T16:45:16.631Z,16.80
2017-10-17T16:47:42.952Z,16.50
2017-10-17T16:50:09.279Z,16.40
2017-10-17T16:52:35.547Z,16.30
2017-10-17T16:55:01.925Z,16.20
2017-10-17T16:57:29.082Z,15.90
2017-10-17T16:59:56.150Z,15.80
2017-10-17T17:02:23.234Z,15.80
2017-10-17T17:04:49.593Z,15.70
2017-10-17T17:07:15.911Z,15.70
2017-10-17T17:09:42.238Z,15.70
2017-10-17T17:12:08.523Z,15.80
2017-10-17T17:14:34.877Z,15.80
2017-10-17T17:17:01.164Z,15.70
2017-10-17T17:19:27.439Z,15.60
2017-10-17T17:21:53.770Z,15.30
2017-10-17T17:24:20.084Z,15.10
2017-10-17T17:26:46.390Z,14.90
2017-10-17T17:29:12.723Z,14.70
2017-10-17T17:31:39.051Z,14.70
2017-10-17T17:34:05.314Z,14.60
2017-10-17T17:36:31.609Z,14.50
2017-10-17T17:38:57.906Z,14.50
2017-10-17T17:41:24.231Z,14.50
2017-10-17T17:43:50.531Z,14.50
2017-10-17T17:46:16.841Z,14.40
2017-10-17T17:48:43.139Z,14.40
2017-10-17T17:51:10.207Z,14.20
2017-10-17T17:53:36.494Z,14.10
2017-10-17T17:56:02.823Z,14.10
2017-10-17T17:58:29.090Z,14.00
2017-10-17T18:00:55.420Z,14.00
2017-10-17T18:03:21.719Z,13.90
2017-10-17T18:05:48.012Z,13.90
2017-10-17T18:08:14.318Z,14.00
2017-10-17T18:10:40.668Z,14.00
2017-10-17T18:13:06.950Z,14.00
2017-10-17T18:15:33.987Z,13.90
2017-10-17T18:18:00.288Z,13.80
2017-10-17T18:20:26.630Z,13.80
2017-10-17T18:22:52.946Z,13.80
2017-10-17T18:25:19.232Z,13.80
2017-10-17T18:27:45.539Z,13.70
2017-10-17T18:30:12.603Z,13.50
2017-10-17T18:32:38.911Z,13.50
2017-10-17T18:35:05.190Z,13.50
2017-10-17T18:37:31.539Z,13.50
2017-10-17T18:39:58.137Z,13.50
2017-10-17T18:42:24.431Z,13.50
2017-10-17T18:44:50.726Z,13.60
2017-10-17T18:47:17.018Z,13.60
2017-10-17T18:49:43.339Z,13.60
2017-10-17T18:52:10.363Z,13.60
2017-10-17T18:54:36.690Z,13.50
2017-10-17T18:57:03.000Z,13.50
2017-10-17T18:59:29.261Z,13.50
2017-10-17T19:01:55.624Z,13.70
2017-10-17T19:04:21.891Z,13.80
2017-10-17T19:06:48.207Z,13.90
2017-10-17T19:09:14.514Z,14.00
2017-10-17T19:11:40.799Z,14.00
2017-10-17T19:14:07.074Z,14.10
2017-10-17T19:16:33.379Z,14.10
2017-10-17T19:19:00.430Z,13.90
2017-10-17T19:21:27.448Z,13.90
2017-10-17T19:23:53.739Z,13.90
2017-10-17T19:26:20.033Z,13.90
2017-10-17T19:28:47.056Z,13.90
2017-10-17T19:31:13.358Z,13.80
2017-10-17T19:33:39.664Z,13.80
2017-10-17T19:36:05.981Z,13.80
2017-10-17T19:38:32.274Z,13.60
2017-10-17T19:40:58.580Z,13.50
2017-10-17T19:43:24.902Z,13.40
2017-10-17T19:45:51.226Z,13.50
2017-10-17T19:48:17.493Z,13.50
2017-10-17T19:50:43.779Z,13.50
2017-10-17T19:53:10.074Z,13.40
2017-10-17T19:55:37.133Z,13.40
2017-10-17T19:58:03.431Z,13.40
2017-10-17T20:00:30.555Z,13.40
2017-10-17T20:02:56.880Z,13.40
2017-10-17T20:05:23.162Z,13.30
2017-10-17T20:07:50.239Z,13.30
2017-10-17T20:10:16.538Z,13.30
2017-10-17T20:12:43.587Z,13.30
2017-10-17T20:15:11.681Z,13.30
2017-10-17T20:17:38.611Z,13.30
2017-10-17T20:20:04.946Z,13.30
2017-10-17T20:22:31.269Z,13.30
2017-10-17T20:24:57.584Z,13.40
2017-10-17T20:27:24.710Z,13.50
2017-10-17T20:29:51.059Z,13.50
2017-10-17T20:32:18.203Z,13.60
2017-10-17T20:34:45.278Z,13.50
2017-10-17T20:37:11.741Z,13.50
2017-10-17T20:39:38.218Z,13.50
2017-10-17T20:42:05.317Z,13.50
2017-10-17T20:44:31.651Z,13.50
2017-10-17T20:46:58.014Z,13.60
2017-10-17T20:49:24.315Z,13.30
2017-10-17T20:51:52.237Z,13.10
2017-10-17T20:54:19.272Z,13.00
2017-10-17T20:56:46.584Z,12.80
2017-10-17T20:59:12.866Z,12.80
2017-10-17T21:01:39.910Z,12.60
2017-10-17T21:04:06.948Z,12.60
2017-10-17T21:06:34.039Z,12.60
2017-10-17T21:09:00.338Z,12.50
2017-10-17T21:11:28.026Z,12.50
2017-10-17T21:13:54.325Z,12.40
2017-10-17T21:16:21.419Z,12.30
2017-10-17T21:18:47.739Z,12.40
2017-10-17T21:21:14.047Z,12.20
2017-10-17T21:23:40.407Z,12.20
2017-10-17T21:26:06.717Z,12.20
2017-10-17T21:28:33.040Z,12.10
2017-10-17T21:30:59.380Z,12.10
2017-10-17T21:33:25.738Z,12.00
2017-10-17T21:35:52.072Z,11.90
2017-10-17T21:38:18.350Z,11.90
2017-10-17T21:40:45.399Z,11.80
2017-10-17T21:43:11.686Z,11.70
2017-10-17T21:45:38.003Z,11.60
2017-10-17T21:48:04.387Z,11.60
2017-10-17T21:50:31.398Z,11.60
2017-10-17T21:52:58.694Z,11.70
2017-10-17T21:55:24.970Z,11.60
2017-10-17T21:57:53.544Z,11.70
2017-10-17T22:00:33.781Z,11.60
2017-10-17T22:03:00.054Z,11.60
2017-10-17T22:05:26.343Z,11.60
2017-10-17T22:07:52.647Z,11.70
2017-10-17T22:10:18.956Z,11.70
2017-10-17T22:12:46.986Z,11.50
2017-10-17T22:15:13.321Z,11.50
2017-10-17T22:17:39.679Z,11.30
2017-10-17T22:20:05.958Z,11.30
2017-10-17T22:22:32.272Z,11.40
2017-10-17T22:24:58.546Z,11.40
2017-10-17T22:27:24.834Z,11.40
2017-10-17T22:29:51.139Z,11.50
2017-10-17T22:32:18.215Z,11.60
2017-10-17T22:34:44.555Z,11.60
2017-10-17T22:37:10.862Z,11.60
2017-10-17T22:39:37.191Z,11.50
2017-10-17T22:42:03.500Z,11.30
2017-10-17T22:44:30.599Z,11.10
2017-10-17T22:46:56.894Z,11.00
2017-10-17T22:49:23.198Z,11.00
2017-10-17T22:51:49.510Z,10.90
2017-10-17T22:54:15.797Z,10.90
2017-10-17T22:56:42.071Z,10.90
2017-10-17T22:59:08.398Z,10.80
2017-10-17T23:01:34.711Z,10.80
2017-10-17T23:04:00.996Z,10.80
2017-10-17T23:06:27.328Z,10.80
2017-10-17T23:08:54.303Z,10.80
2017-10-17T23:11:20.594Z,10.80
2017-10-17T23:13:47.641Z,10.80
2017-10-17T23:16:14.675Z,10.80
2017-10-17T23:18:54.051Z,10.80
2017-10-17T23:21:20.351Z,10.70
2017-10-17T23:23:46.628Z,10.80
2017-10-17T23:26:12.929Z,10.80
2017-10-17T23:28:39.230Z,10.90
2017-10-17T23:31:06.278Z,10.80
2017-10-17T23:33:33.310Z,10.90
2017-10-17T23:35:59.610Z,10.80
2017-10-17T23:38:25.903Z,10.90
2017-10-17T23:40:52.201Z,10.90
2017-10-17T23:43:18.478Z,10.80
2017-10-17T23:45:44.789Z,10.80
2017-10-17T23:48:11.812Z,10.70
2017-10-17T23:50:38.110Z,10.70
2017-10-17T23:53:04.394Z,10.60
2017-10-17T23:55:30.671Z,10.60
2017-10-17T23:57:56.991Z,10.70
